Airfield :
LOGIN :

Register | Disclaimer

   EN    FR    IT 

 










Legend :    VFR   Marginal VFR   IFR   Intensive IFR   Very Intensive IFR
Visi :
Ceiling :
>= 8 km
>= 3000ft
5 to 8 km
1000 to 3000 ft
1500m to 5 km
500 to 1000 ft
800 to 1500m
200 to 500 ft
< 800m
< 200 ft
Symbols :   Thunderstorms  Fog  Heavy snow  Heavy precipitations  Wind > 20 kt
SIGMETs :     Misc.  Thunderstorms  Icing  Turbulence  Mountain Waves  Volcanic Ashes






- Airport Elevation : 245 ft
- IATA code : BIQ


LFBZ - Biarritz

CURRENT METAR :
  • 210700Z AUTO 14002KT 9999 BKN021 OVC040 09/08 Q1032 TEMPO 28010KT BKN012

EXPIRED METARs :
  • 210630Z AUTO 24002KT 9999 SCT020 OVC041 09/07 Q1031 TEMPO BKN012
  • 210600Z AUTO 20002KT 9999 FEW021 OVC039 09/07 Q1031 TEMPO 4000 -RADZ BKN012 BECMG 28010KT
  • 210530Z AUTO VRB01KT 9999 SCT021 OVC038 09/07 Q1031 TEMPO 4000 -RADZ BKN007
  • 210500Z AUTO 21002KT 9999 FEW022 OVC039 09/07 Q1031 TEMPO 4000 -RADZ BKN007
  • 210430Z AUTO 18003KT 9999 SCT021 OVC040 09/07 Q1031 TEMPO 4000 -RADZ BKN007

TAF TAF LFBZ
Valid from the 21 at 06:00 until the 22 at 06:00 UTC


210500Z 2106/2206 28010KT 9999 BKN025
PROB40
TEMPO 2106/2107 4000 -RADZ BKN007
TEMPO 2107/2111 BKN012
BECMG 2108/2110 09006KT
BECMG 2114/2116 CAVOK



MET'MAP, your aeronautical weather chart ! - Copyright ORBIFLY December 2007 - Disclaimer

ORBIFLY MET'MAP TEAM :

Programming & Development : Alexandra Zaïnal
Concept & original design : Baudouin d'Aumeries
Assistance for programming : Marc-Olivier Méhu
Technical & hardware support : Manuel Goepfert

Contact : metmap@orbifly.com




SOURCES & CREDITS :

   NOAA